createdAt,value
2023-03-11T00:00:46.780Z,60.00
2023-03-11T00:03:24.668Z,59.50
2023-03-11T00:06:01.290Z,58.40
2023-03-11T00:08:37.374Z,59.80
2023-03-11T00:11:15.248Z,58.60
2023-03-11T00:13:50.518Z,58.10
2023-03-11T00:16:26.190Z,58.80
2023-03-11T00:19:02.180Z,58.00
2023-03-11T00:21:37.735Z,58.50
2023-03-11T00:24:13.148Z,58.40
2023-03-11T00:26:51.807Z,57.60
2023-03-11T00:29:27.365Z,57.40
2023-03-11T00:32:02.871Z,56.80
2023-03-11T00:34:37.938Z,57.80
2023-03-11T00:37:13.916Z,57.80
2023-03-11T00:39:49.673Z,57.30
2023-03-11T00:42:27.679Z,58.00
2023-03-11T00:45:02.983Z,60.20
2023-03-11T00:47:38.836Z,60.60
2023-03-11T00:50:19.679Z,60.90
2023-03-11T00:52:56.522Z,60.90
2023-03-11T00:55:34.289Z,60.40
2023-03-11T00:58:16.769Z,59.90
2023-03-11T01:00:58.381Z,59.70
2023-03-11T01:03:33.808Z,60.10
2023-03-11T01:06:09.299Z,60.00
2023-03-11T01:08:45.269Z,60.00
2023-03-11T01:11:20.986Z,59.50
2023-03-11T01:13:58.905Z,60.00
2023-03-11T01:16:34.277Z,60.00
2023-03-11T01:19:10.169Z,60.20
2023-03-11T01:21:46.861Z,60.30
2023-03-11T01:24:22.160Z,60.60
2023-03-11T01:26:57.834Z,60.20
2023-03-11T01:29:36.355Z,59.70
2023-03-11T01:32:12.793Z,60.00
2023-03-11T01:34:48.118Z,59.70
2023-03-11T01:37:23.555Z,59.50
2023-03-11T01:39:59.473Z,59.20
2023-03-11T01:42:35.117Z,59.10
2023-03-11T01:45:47.009Z,59.30
2023-03-11T01:48:26.470Z,60.10
2023-03-11T01:51:03.082Z,60.50
2023-03-11T01:53:40.202Z,60.70
2023-03-11T01:56:16.105Z,61.80
2023-03-11T01:58:53.976Z,61.30
2023-03-11T02:01:32.314Z,60.90
2023-03-11T02:04:10.197Z,61.90
2023-03-11T02:06:45.956Z,61.80
2023-03-11T02:09:21.884Z,62.10
2023-03-11T02:11:57.950Z,62.10
2023-03-11T02:14:36.121Z,62.70
2023-03-11T02:17:13.418Z,63.20
2023-03-11T02:20:16.248Z,64.00
2023-03-11T02:22:54.502Z,63.80
2023-03-11T02:25:39.482Z,64.60
2023-03-11T02:28:19.228Z,65.40
2023-03-11T02:30:56.976Z,65.80
2023-03-11T02:33:36.107Z,65.70
2023-03-11T02:36:12.781Z,66.60
2023-03-11T02:38:48.039Z,66.30
2023-03-11T02:41:23.313Z,65.70
2023-03-11T02:44:01.443Z,65.50
2023-03-11T02:46:39.566Z,64.30
2023-03-11T02:49:15.894Z,63.80
2023-03-11T02:51:51.180Z,64.20
2023-03-11T02:54:26.872Z,64.30
2023-03-11T02:57:02.590Z,64.60
2023-03-11T02:59:40.014Z,64.40
2023-03-11T03:02:16.756Z,64.50
2023-03-11T03:04:52.284Z,64.20
2023-03-11T03:07:28.122Z,64.30
2023-03-11T03:10:03.412Z,63.80
2023-03-11T03:12:38.866Z,64.40
2023-03-11T03:15:17.735Z,64.20
2023-03-11T03:17:55.197Z,64.10
2023-03-11T03:20:30.790Z,63.50
2023-03-11T03:23:09.362Z,63.30
2023-03-11T03:25:47.772Z,63.60
2023-03-11T03:28:23.589Z,63.50
2023-03-11T03:31:00.766Z,63.60
2023-03-11T03:33:37.347Z,63.70
2023-03-11T03:36:16.002Z,64.10
2023-03-11T03:39:03.799Z,63.20
2023-03-11T03:41:42.876Z,63.70
2023-03-11T03:44:18.508Z,63.50
2023-03-11T03:46:57.208Z,63.60
2023-03-11T03:49:33.945Z,63.60
2023-03-11T03:52:10.842Z,63.00
2023-03-11T03:54:46.822Z,63.40
2023-03-11T03:57:22.325Z,63.20
2023-03-11T03:59:58.001Z,63.30
2023-03-11T04:02:36.627Z,62.90
2023-03-11T04:05:14.540Z,62.90
2023-03-11T04:07:50.213Z,62.30
2023-03-11T04:10:27.838Z,62.40
2023-03-11T04:13:04.017Z,61.50
2023-03-11T04:15:41.755Z,61.70
2023-03-11T04:18:19.650Z,62.00
2023-03-11T04:20:55.766Z,61.70
2023-03-11T04:23:31.826Z,62.10
2023-03-11T04:26:07.242Z,62.50
2023-03-11T04:28:44.523Z,62.70
2023-03-11T04:31:20.829Z,62.80
2023-03-11T04:33:58.574Z,62.70
2023-03-11T04:36:34.375Z,63.70
2023-03-11T04:39:11.307Z,63.90
2023-03-11T04:41:50.655Z,63.40
2023-03-11T04:44:30.676Z,63.70
2023-03-11T04:47:05.910Z,63.10
2023-03-11T04:49:44.684Z,63.90
2023-03-11T04:52:20.955Z,64.00
2023-03-11T04:54:56.590Z,64.10
2023-03-11T04:57:32.235Z,64.10
2023-03-11T05:00:11.414Z,64.60
2023-03-11T05:02:50.563Z,65.60
2023-03-11T05:05:28.598Z,66.70
2023-03-11T05:08:04.446Z,67.30
2023-03-11T05:10:40.624Z,67.40
2023-03-11T05:13:16.211Z,67.30
2023-03-11T05:15:52.677Z,67.40
2023-03-11T05:18:28.443Z,68.20
2023-03-11T05:21:06.146Z,68.20
2023-03-11T05:23:44.345Z,68.30
2023-03-11T05:26:21.708Z,68.60
2023-03-11T05:28:56.911Z,68.90
2023-03-11T05:31:32.695Z,69.20
2023-03-11T05:34:09.417Z,69.80
2023-03-11T05:36:47.658Z,70.10
2023-03-11T05:39:24.221Z,69.40
2023-03-11T05:42:00.173Z,68.60
2023-03-11T05:44:36.080Z,68.70
2023-03-11T05:47:11.885Z,69.30
2023-03-11T05:49:48.018Z,69.50
2023-03-11T05:52:27.823Z,69.40
2023-03-11T05:55:03.862Z,70.10
2023-03-11T05:57:40.628Z,70.40
2023-03-11T06:00:16.599Z,70.20
2023-03-11T06:02:58.082Z,70.20
2023-03-11T06:05:33.390Z,70.90
2023-03-11T06:08:11.064Z,70.80
2023-03-11T06:10:48.870Z,70.60
2023-03-11T06:13:26.588Z,70.80
2023-03-11T06:16:02.193Z,71.50
2023-03-11T06:18:37.914Z,71.70
2023-03-11T06:21:15.705Z,71.60
2023-03-11T06:23:53.822Z,71.60
2023-03-11T06:26:29.956Z,71.30
2023-03-11T06:29:05.725Z,71.70
2023-03-11T06:31:41.912Z,71.80
2023-03-11T06:34:20.396Z,72.10
2023-03-11T06:36:56.460Z,72.50
2023-03-11T06:39:33.803Z,72.90
2023-03-11T06:42:13.988Z,72.90
2023-03-11T06:44:52.305Z,73.20
2023-03-11T06:47:27.932Z,73.10
2023-03-11T06:50:07.784Z,73.10
2023-03-11T06:52:43.663Z,72.50
2023-03-11T06:55:22.806Z,72.70
2023-03-11T06:57:58.745Z,72.30
2023-03-11T07:00:34.705Z,72.50
2023-03-11T07:03:10.862Z,72.70
2023-03-11T07:05:49.986Z,73.00
2023-03-11T07:08:25.923Z,73.00
2023-03-11T07:11:11.113Z,73.50
2023-03-11T07:13:47.092Z,73.70
2023-03-11T07:16:25.749Z,73.80
2023-03-11T07:19:06.654Z,74.10
2023-03-11T07:21:42.932Z,74.20
2023-03-11T07:24:19.763Z,74.70
2023-03-11T07:26:57.879Z,74.70
2023-03-11T07:29:33.464Z,74.60
2023-03-11T07:32:09.381Z,74.60
2023-03-11T07:34:44.557Z,75.20
2023-03-11T07:37:20.160Z,75.20
2023-03-11T07:39:55.292Z,75.40
2023-03-11T07:42:32.826Z,75.10
2023-03-11T07:45:08.820Z,75.30
2023-03-11T07:47:46.041Z,75.30
2023-03-11T07:50:23.786Z,75.20
2023-03-11T07:52:59.688Z,75.30
2023-03-11T07:55:34.931Z,75.40
2023-03-11T07:58:12.788Z,75.50
2023-03-11T08:00:48.622Z,75.70
2023-03-11T08:03:24.513Z,75.70
2023-03-11T08:06:05.920Z,75.70
2023-03-11T08:08:41.513Z,75.70
2023-03-11T08:11:17.094Z,75.90
2023-03-11T08:13:55.353Z,76.10
2023-03-11T08:16:32.757Z,76.30
2023-03-11T08:19:08.665Z,76.30
2023-03-11T08:21:44.096Z,76.10
2023-03-11T08:24:19.817Z,76.00
2023-03-11T08:26:57.196Z,76.00
2023-03-11T08:29:34.795Z,75.80
2023-03-11T08:32:11.948Z,75.30
2023-03-11T08:34:47.729Z,75.10
2023-03-11T08:37:24.367Z,75.20
2023-03-11T08:40:00.355Z,75.30
2023-03-11T08:42:37.118Z,75.60
2023-03-11T08:45:39.786Z,75.30
2023-03-11T08:48:17.054Z,76.50
2023-03-11T08:50:54.651Z,75.10
2023-03-11T08:53:33.348Z,74.30
2023-03-11T08:56:09.423Z,73.30
2023-03-11T08:58:44.819Z,72.50
2023-03-11T09:01:22.862Z,71.70
2023-03-11T09:03:59.006Z,71.70
2023-03-11T09:06:35.038Z,71.90
2023-03-11T09:09:13.026Z,72.00
2023-03-11T09:11:48.869Z,72.10
2023-03-11T09:14:24.163Z,72.10
2023-03-11T09:17:02.738Z,72.50
2023-03-11T09:19:40.242Z,72.60
2023-03-11T09:22:16.198Z,72.70
2023-03-11T09:24:51.542Z,73.00
2023-03-11T09:27:27.495Z,73.00
2023-03-11T09:30:03.041Z,73.80
2023-03-11T09:32:40.748Z,74.30
2023-03-11T09:35:16.930Z,75.00
2023-03-11T09:37:52.664Z,75.30
2023-03-11T09:40:29.867Z,75.60
2023-03-11T09:43:16.568Z,76.10
2023-03-11T09:45:58.030Z,76.30
2023-03-11T09:48:41.588Z,76.90
2023-03-11T09:51:23.165Z,77.20
2023-03-11T09:54:02.765Z,77.90
2023-03-11T09:56:44.354Z,78.00
2023-03-11T09:59:24.276Z,77.90
2023-03-11T10:01:59.709Z,78.40
2023-03-11T10:04:43.389Z,78.50
2023-03-11T10:07:23.762Z,78.70
2023-03-11T10:10:00.513Z,78.80
2023-03-11T10:12:47.878Z,79.30
2023-03-11T10:15:29.493Z,79.20
2023-03-11T10:18:27.663Z,79.30
2023-03-11T10:21:14.762Z,79.20
2023-03-11T10:24:04.868Z,79.10
2023-03-11T10:26:46.763Z,79.10
2023-03-11T10:29:28.407Z,79.10
2023-03-11T10:32:09.634Z,79.20
2023-03-11T10:35:22.049Z,78.90
2023-03-11T10:38:05.717Z,79.00
2023-03-11T10:40:45.021Z,78.60
2023-03-11T10:43:24.104Z,78.60
2023-03-11T10:46:00.526Z,78.70
2023-03-11T10:48:37.722Z,78.80
2023-03-11T10:51:24.490Z,78.80
2023-03-11T10:54:05.083Z,78.70
2023-03-11T10:56:43.551Z,78.90
2023-03-11T10:59:29.518Z,78.90
2023-03-11T11:02:05.974Z,78.90
2023-03-11T11:04:44.198Z,78.90
2023-03-11T11:07:32.804Z,79.10
2023-03-11T11:10:24.885Z,79.10
2023-03-11T11:13:01.546Z,79.50
2023-03-11T11:15:38.508Z,79.20
2023-03-11T11:18:25.877Z,79.50
2023-03-11T11:21:06.588Z,79.20
2023-03-11T11:23:45.417Z,79.40
2023-03-11T11:26:27.379Z,79.40
2023-03-11T11:29:18.997Z,79.50
2023-03-11T11:31:54.665Z,79.30
2023-03-11T11:34:35.187Z,79.50
2023-03-11T11:37:16.100Z,79.30
2023-03-11T11:39:55.117Z,79.50
2023-03-11T11:42:35.420Z,79.30
2023-03-11T11:45:20.892Z,79.20
2023-03-11T11:48:05.549Z,79.40
2023-03-11T11:50:48.018Z,79.20
2023-03-11T11:53:32.725Z,79.40
2023-03-11T11:56:12.872Z,79.20
2023-03-11T11:58:50.295Z,79.00
2023-03-11T12:01:35.915Z,79.00
2023-03-11T12:04:48.611Z,79.30
2023-03-11T12:07:42.832Z,79.20
2023-03-11T12:10:29.834Z,79.00
2023-03-11T12:13:42.722Z,79.20
2023-03-11T12:16:27.843Z,79.40
2023-03-11T12:19:07.708Z,79.40
2023-03-11T12:22:04.518Z,79.50
2023-03-11T12:24:58.685Z,79.60
2023-03-11T12:27:38.404Z,79.80
2023-03-11T12:30:21.827Z,79.80
2023-03-11T12:33:02.554Z,79.70
2023-03-11T12:35:40.295Z,79.60
2023-03-11T12:38:22.858Z,79.40
2023-03-11T12:41:07.089Z,79.40
2023-03-11T12:44:30.953Z,79.50
2023-03-11T12:47:08.730Z,79.00
2023-03-11T12:49:47.177Z,79.10
2023-03-11T12:52:36.140Z,79.00
2023-03-11T12:55:42.468Z,79.20
2023-03-11T12:58:52.173Z,78.90
2023-03-11T13:02:01.581Z,79.30
2023-03-11T13:04:55.904Z,79.60
2023-03-11T13:07:52.995Z,79.70
2023-03-11T13:10:44.285Z,80.00
2023-03-11T13:13:42.229Z,80.30
2023-03-11T13:16:45.802Z,80.30
2023-03-11T13:19:39.998Z,80.10
2023-03-11T13:22:54.851Z,80.30
2023-03-11T13:25:36.746Z,80.40
2023-03-11T13:28:48.903Z,80.50
2023-03-11T13:31:43.489Z,80.50
2023-03-11T13:34:26.551Z,80.30
2023-03-11T13:37:19.119Z,80.50
2023-03-11T13:40:14.604Z,80.50
2023-03-11T13:42:52.248Z,80.40
2023-03-11T13:45:34.055Z,80.50
2023-03-11T13:48:17.638Z,80.50
2023-03-11T13:50:56.278Z,80.50
2023-03-11T13:53:37.725Z,80.50
2023-03-11T13:56:22.807Z,80.50
2023-03-11T13:59:05.411Z,80.50
2023-03-11T14:01:41.736Z,80.50
2023-03-11T14:04:20.312Z,80.50
2023-03-11T14:06:59.938Z,80.50
2023-03-11T14:09:36.573Z,80.50
2023-03-11T14:12:18.652Z,80.50
2023-03-11T14:14:59.288Z,80.50
2023-03-11T14:17:35.005Z,80.40
2023-03-11T14:20:17.525Z,80.40
2023-03-11T14:22:53.929Z,80.50
2023-03-11T14:25:32.750Z,80.40
2023-03-11T14:28:11.862Z,80.50
2023-03-11T14:30:59.859Z,80.50
2023-03-11T14:33:35.038Z,80.50
2023-03-11T14:36:18.452Z,80.50
2023-03-11T14:38:53.891Z,80.50
2023-03-11T14:41:30.507Z,80.50
2023-03-11T14:44:08.606Z,80.50
2023-03-11T14:46:45.338Z,80.50
2023-03-11T14:49:24.717Z,80.50
2023-03-11T14:52:04.017Z,80.40
2023-03-11T14:54:41.577Z,80.40
2023-03-11T14:57:24.380Z,80.50
2023-03-11T15:00:02.284Z,80.40
2023-03-11T15:02:49.172Z,80.10
2023-03-11T15:05:28.464Z,80.20
2023-03-11T15:08:07.015Z,80.10
2023-03-11T15:10:45.184Z,80.00
2023-03-11T15:13:22.901Z,79.90
2023-03-11T15:16:06.244Z,80.10
2023-03-11T15:18:47.430Z,80.20
2023-03-11T15:21:25.876Z,80.00
2023-03-11T15:24:08.276Z,80.10
2023-03-11T15:26:45.292Z,80.00
2023-03-11T15:29:22.970Z,80.10
2023-03-11T15:32:00.915Z,80.20
2023-03-11T15:34:38.318Z,80.30
2023-03-11T15:37:28.009Z,80.20
2023-03-11T15:40:15.423Z,80.30
2023-03-11T15:42:53.557Z,80.40
2023-03-11T15:45:29.559Z,80.40
2023-03-11T15:48:07.108Z,80.40
2023-03-11T15:50:53.869Z,80.40
2023-03-11T15:53:31.103Z,80.50
2023-03-11T15:56:17.183Z,80.30
2023-03-11T15:58:53.250Z,80.30
2023-03-11T16:01:30.191Z,80.20
2023-03-11T16:04:08.187Z,80.30
2023-03-11T16:06:44.329Z,80.30
2023-03-11T16:09:22.236Z,80.10
2023-03-11T16:11:58.591Z,80.30
2023-03-11T16:14:34.271Z,79.90
2023-03-11T16:17:15.962Z,80.10
2023-03-11T16:19:54.290Z,80.30
2023-03-11T16:22:36.887Z,80.10
2023-03-11T16:25:22.720Z,80.00
2023-03-11T16:28:00.032Z,79.80
2023-03-11T16:30:39.282Z,80.00
2023-03-11T16:33:14.616Z,80.00
2023-03-11T16:35:51.702Z,80.00
2023-03-11T16:38:33.241Z,80.00
2023-03-11T16:41:09.000Z,80.20
2023-03-11T16:43:47.147Z,80.20
2023-03-11T16:46:22.813Z,80.00
2023-03-11T16:48:58.580Z,80.10
2023-03-11T16:51:36.328Z,80.20
2023-03-11T16:54:11.758Z,80.00
2023-03-11T16:56:46.821Z,80.10
2023-03-11T16:59:22.814Z,79.80
2023-03-11T17:01:59.022Z,79.90
2023-03-11T17:04:35.958Z,79.70
2023-03-11T17:07:13.248Z,79.90
2023-03-11T17:09:48.982Z,79.60
2023-03-11T17:12:25.338Z,79.60
2023-03-11T17:15:01.851Z,79.90
2023-03-11T17:17:40.090Z,80.10
2023-03-11T17:20:21.621Z,80.00
2023-03-11T17:23:01.154Z,80.30
2023-03-11T17:25:36.259Z,79.70
2023-03-11T17:28:12.586Z,79.80
2023-03-11T17:30:51.501Z,79.60
2023-03-11T17:33:28.669Z,79.70
2023-03-11T17:36:07.042Z,79.80
2023-03-11T17:38:45.820Z,79.50
2023-03-11T17:41:22.516Z,79.60
2023-03-11T17:43:57.856Z,79.30
2023-03-11T17:46:37.021Z,79.30
2023-03-11T17:49:15.932Z,79.10
2023-03-11T17:51:52.172Z,78.80
2023-03-11T17:54:30.973Z,78.90
2023-03-11T17:57:06.400Z,79.00
2023-03-11T17:59:42.324Z,78.60
2023-03-11T18:02:19.754Z,78.70
2023-03-11T18:04:58.092Z,78.70
2023-03-11T18:07:33.132Z,78.80
2023-03-11T18:10:11.945Z,78.50
2023-03-11T18:12:51.659Z,78.40
2023-03-11T18:15:27.093Z,78.00
2023-03-11T18:18:02.204Z,77.80
2023-03-11T18:20:40.987Z,77.80
2023-03-11T18:23:17.304Z,78.10
2023-03-11T18:25:58.192Z,77.80
2023-03-11T18:28:33.367Z,77.60
2023-03-11T18:31:13.233Z,77.50
2023-03-11T18:33:58.167Z,77.90
2023-03-11T18:36:35.171Z,77.60
2023-03-11T18:39:13.633Z,77.70
2023-03-11T18:41:52.499Z,77.90
2023-03-11T18:44:29.500Z,77.90
2023-03-11T18:47:09.499Z,77.80
2023-03-11T18:49:52.916Z,77.90
2023-03-11T18:52:28.302Z,78.00
2023-03-11T18:55:04.610Z,77.60
2023-03-11T18:57:44.728Z,78.00
2023-03-11T19:00:24.005Z,78.10
2023-03-11T19:03:00.297Z,78.00
2023-03-11T19:05:38.367Z,78.20
2023-03-11T19:08:13.826Z,78.10
2023-03-11T19:10:49.220Z,77.80
2023-03-11T19:13:40.760Z,78.00
2023-03-11T19:16:23.042Z,77.80
2023-03-11T19:19:00.323Z,78.00
2023-03-11T19:21:35.377Z,78.10
2023-03-11T19:24:12.388Z,78.10
2023-03-11T19:26:48.210Z,78.30
2023-03-11T19:29:28.395Z,78.30
2023-03-11T19:32:06.715Z,78.40
2023-03-11T19:34:42.207Z,78.10
2023-03-11T19:37:20.078Z,78.10
2023-03-11T19:39:57.166Z,78.20
2023-03-11T19:42:33.459Z,78.10
2023-03-11T19:45:12.194Z,78.10
2023-03-11T19:47:52.462Z,78.20
2023-03-11T19:50:28.248Z,78.30
2023-03-11T19:53:07.771Z,78.30
2023-03-11T19:55:46.348Z,78.20
2023-03-11T19:58:25.978Z,78.20
2023-03-11T20:01:05.859Z,78.30
2023-03-11T20:03:41.140Z,78.20
2023-03-11T20:06:19.930Z,78.40
2023-03-11T20:08:56.126Z,78.40
2023-03-11T20:11:34.732Z,78.20
2023-03-11T20:14:14.664Z,78.30
2023-03-11T20:16:54.200Z,78.10
2023-03-11T20:19:31.317Z,78.00
2023-03-11T20:22:07.337Z,78.30
2023-03-11T20:24:42.838Z,78.10
2023-03-11T20:27:21.625Z,78.00
2023-03-11T20:29:58.141Z,78.10
2023-03-11T20:32:37.707Z,78.00
2023-03-11T20:35:14.514Z,78.10
2023-03-11T20:37:51.416Z,78.00
2023-03-11T20:40:27.945Z,78.00
2023-03-11T20:43:03.401Z,78.30
2023-03-11T20:45:38.678Z,77.90
2023-03-11T20:48:16.630Z,78.00
2023-03-11T20:50:52.984Z,77.70
2023-03-11T20:53:28.393Z,78.00
2023-03-11T20:56:04.161Z,77.90
2023-03-11T20:58:40.269Z,77.80
2023-03-11T21:01:19.560Z,77.80
2023-03-11T21:03:58.566Z,77.80
2023-03-11T21:06:34.787Z,77.70
2023-03-11T21:09:12.344Z,77.40
2023-03-11T21:11:48.495Z,77.50
2023-03-11T21:14:24.065Z,77.10
2023-03-11T21:17:02.355Z,77.20
2023-03-11T21:19:44.079Z,77.30
2023-03-11T21:22:21.045Z,77.30
2023-03-11T21:24:57.715Z,76.80
2023-03-11T21:27:33.112Z,76.60
2023-03-11T21:30:09.788Z,76.30
2023-03-11T21:32:46.764Z,76.10
2023-03-11T21:35:24.814Z,76.20
2023-03-11T21:38:00.045Z,75.90
2023-03-11T21:40:35.645Z,76.00
2023-03-11T21:43:12.314Z,76.10
2023-03-11T21:45:48.882Z,76.20
2023-03-11T21:48:25.228Z,76.20
2023-03-11T21:51:06.283Z,76.00
2023-03-11T21:53:42.548Z,76.00
2023-03-11T21:56:22.430Z,75.70
2023-03-11T21:58:57.880Z,75.50
2023-03-11T22:01:34.503Z,74.90
2023-03-11T22:04:11.122Z,74.00
2023-03-11T22:06:50.589Z,73.60
2023-03-11T22:09:27.101Z,72.80
2023-03-11T22:12:03.519Z,71.90
2023-03-11T22:14:39.548Z,72.80
2023-03-11T22:17:18.317Z,72.40
2023-03-11T22:19:53.661Z,72.60
2023-03-11T22:22:31.786Z,73.20
2023-03-11T22:25:08.248Z,73.30
2023-03-11T22:27:43.644Z,73.80
2023-03-11T22:30:25.124Z,73.10
2023-03-11T22:33:01.026Z,73.20
2023-03-11T22:35:37.328Z,73.60
2023-03-11T22:38:15.238Z,74.00
2023-03-11T22:40:50.294Z,74.00
2023-03-11T22:43:25.708Z,74.00
2023-03-11T22:46:03.109Z,74.20
2023-03-11T22:48:39.117Z,74.50
2023-03-11T22:51:14.613Z,74.50
2023-03-11T22:53:52.569Z,74.60
2023-03-11T22:56:28.875Z,74.50
2023-03-11T22:59:04.514Z,74.80
2023-03-11T23:01:40.804Z,74.90
2023-03-11T23:04:16.254Z,74.80
2023-03-11T23:06:52.937Z,74.90
2023-03-11T23:09:31.146Z,75.00
2023-03-11T23:12:09.594Z,75.00
2023-03-11T23:14:45.422Z,74.50
2023-03-11T23:17:24.310Z,74.60
2023-03-11T23:19:59.717Z,74.20
2023-03-11T23:22:35.617Z,73.60
2023-03-11T23:25:22.886Z,73.20
2023-03-11T23:27:59.052Z,73.00
2023-03-11T23:30:34.602Z,72.50
2023-03-11T23:33:09.910Z,71.70
2023-03-11T23:35:46.623Z,70.90
2023-03-11T23:38:25.843Z,71.10
2023-03-11T23:41:04.790Z,70.80
2023-03-11T23:43:40.612Z,70.20
2023-03-11T23:46:16.207Z,70.00
2023-03-11T23:48:52.061Z,69.80
2023-03-11T23:51:27.315Z,69.70
2023-03-11T23:54:02.382Z,69.30
2023-03-11T23:56:40.259Z,69.40
2023-03-11T23:59:17.800Z,69.20
